Dennysville, Maine
Current Conditions -  °F | °C
As of 11:15 AM on Thursday 23 Oct 2014 (Local Time) from KBHB Reporting Station
Overcast Overcast  
Wind Chill: 52°   Ceiling: 1000
Heat Index: 52°   Visibility: 7mi
Dew Point: 52°   Wind: 18mph
Humidity: 100%   Direction: 50°NE
Pressure: 29.86"   Gusts: 30mph
Location:  44.9°N, 67.23°W
Report Text: KBHB 231515Z AUTO 05016G26KT 7SM OVC010 11/11 A2986 RMK AO1 P0006
Loading
Personal Weather Stations






























Interactive Weather Map
Tropical Storm Tracking
New forecast layout! Learn more

10-Day Weather Forecast

Advertisements
Track Severe Weather on mobile